createdAt,value
2019-05-23T00:01:17.817Z,101600.64
2019-05-23T00:03:50.301Z,101595.39
2019-05-23T00:06:24.222Z,101593.31
2019-05-23T00:08:55.517Z,101601.61
2019-05-23T00:11:29.913Z,101596.69
2019-05-23T00:14:01.942Z,101595.67
2019-05-23T00:16:32.148Z,101598.66
2019-05-23T00:19:02.963Z,101593.36
2019-05-23T00:21:33.345Z,101599.31
2019-05-23T00:24:04.485Z,101602.64
2019-05-23T00:26:36.281Z,101605.58
2019-05-23T00:29:10.463Z,101601.66
2019-05-23T00:31:41.539Z,101600.57
2019-05-23T00:34:11.654Z,101597.72
2019-05-23T00:36:42.174Z,101588.80
2019-05-23T00:39:13.559Z,101597.28
2019-05-23T00:41:43.850Z,101590.44
2019-05-23T00:44:13.828Z,101589.52
2019-05-23T00:46:44.913Z,101593.19
2019-05-23T00:49:16.597Z,101592.69
2019-05-23T00:51:46.869Z,101584.38
2019-05-23T00:54:19.177Z,101583.19
2019-05-23T00:56:49.924Z,101583.66
2019-05-23T00:59:26.957Z,101589.58
2019-05-23T01:01:53.959Z,101588.11
2019-05-23T01:04:24.661Z,101589.34
2019-05-23T01:06:56.292Z,101588.56
2019-05-23T01:09:27.732Z,101589.64
2019-05-23T01:12:01.290Z,101586.20
2019-05-23T01:14:31.576Z,101587.23
2019-05-23T01:17:02.025Z,101590.49
2019-05-23T01:19:37.138Z,101582.02
2019-05-23T01:22:14.404Z,101589.86
2019-05-23T01:24:51.792Z,101585.58
2019-05-23T01:27:22.139Z,101582.80
2019-05-23T01:29:52.546Z,101579.82
2019-05-23T01:32:24.831Z,101577.97
2019-05-23T01:34:57.049Z,101578.33
2019-05-23T01:37:26.717Z,101578.33
2019-05-23T01:39:57.502Z,101579.69
2019-05-23T01:42:30.864Z,101584.31
2019-05-23T01:45:03.618Z,101579.47
2019-05-23T01:47:33.873Z,101581.39
2019-05-23T01:50:04.690Z,101581.47
2019-05-23T01:52:34.991Z,101590.22
2019-05-23T01:55:06.522Z,101583.81
2019-05-23T01:57:36.336Z,101591.73
2019-05-23T02:00:11.447Z,101585.45
2019-05-23T02:02:43.724Z,101586.86
2019-05-23T02:05:14.472Z,101584.41
2019-05-23T02:07:44.065Z,101586.48
2019-05-23T02:10:14.317Z,101581.34
2019-05-23T02:12:45.975Z,101580.83
2019-05-23T02:15:16.921Z,101579.34
2019-05-23T02:17:47.720Z,101582.84
2019-05-23T02:20:20.413Z,101582.97
2019-05-23T02:22:50.493Z,101576.10
2019-05-23T02:25:21.886Z,101584.81
2019-05-23T02:27:57.774Z,101573.86
2019-05-23T02:30:34.560Z,101567.95
2019-05-23T02:33:00.311Z,101573.28
2019-05-23T02:35:29.941Z,101574.62
2019-05-23T02:38:18.085Z,101575.98
2019-05-23T02:40:49.689Z,101570.88
2019-05-23T02:43:23.484Z,101568.19
2019-05-23T02:46:01.083Z,101572.02
2019-05-23T02:48:46.652Z,101572.34
2019-05-23T02:51:26.497Z,101569.77
2019-05-23T02:53:58.647Z,101564.45
2019-05-23T02:56:34.648Z,101566.75
2019-05-23T02:59:16.187Z,101562.20
2019-05-23T03:02:35.797Z,101565.94
2019-05-23T03:05:10.589Z,101561.95
2019-05-23T03:07:40.769Z,101555.37
2019-05-23T03:10:11.176Z,101550.12
2019-05-23T03:12:43.925Z,101555.48
2019-05-23T03:15:16.612Z,101552.81
2019-05-23T03:17:51.826Z,101552.77
2019-05-23T03:20:23.044Z,101545.22
2019-05-23T03:23:06.339Z,101548.41
2019-05-23T03:25:40.766Z,101550.30
2019-05-23T03:28:14.168Z,101548.79
2019-05-23T03:30:48.665Z,101546.48
2019-05-23T03:33:19.199Z,101550.80
2019-05-23T03:35:51.427Z,101550.23
2019-05-23T03:38:22.152Z,101547.84
2019-05-23T03:40:52.474Z,101549.45
2019-05-23T03:43:22.736Z,101540.75
2019-05-23T03:45:54.051Z,101542.08
2019-05-23T03:48:24.397Z,101542.59
2019-05-23T03:50:55.643Z,101539.77
2019-05-23T03:53:32.177Z,101540.22
2019-05-23T03:56:04.411Z,101547.06
2019-05-23T03:58:38.016Z,101543.29
2019-05-23T04:01:10.919Z,101553.47
2019-05-23T04:03:42.765Z,101543.65
2019-05-23T04:06:13.909Z,101545.76
2019-05-23T04:08:43.567Z,101543.73
2019-05-23T04:11:15.520Z,101539.36
2019-05-23T04:13:45.372Z,101540.41
2019-05-23T04:16:15.152Z,101538.61
2019-05-23T04:18:44.838Z,101543.20
2019-05-23T04:21:15.825Z,101544.64
2019-05-23T04:23:45.886Z,101535.61
2019-05-23T04:26:15.864Z,101543.89
2019-05-23T04:28:45.360Z,101539.53
2019-05-23T04:31:14.954Z,101535.25
2019-05-23T04:33:45.913Z,101532.41
2019-05-23T04:36:17.001Z,101538.45
2019-05-23T04:38:47.364Z,101535.79
2019-05-23T04:41:16.972Z,101531.80
2019-05-23T04:43:46.554Z,101541.00
2019-05-23T04:46:16.137Z,101545.34
2019-05-23T04:48:47.839Z,101536.64
2019-05-23T04:51:17.661Z,101550.73
2019-05-23T04:53:47.549Z,101558.70
2019-05-23T04:56:17.248Z,101558.02
2019-05-23T04:58:48.064Z,101562.83
2019-05-23T05:01:20.699Z,101564.92
2019-05-23T05:03:52.874Z,101563.31
2019-05-23T05:06:22.727Z,101567.09
2019-05-23T05:08:55.698Z,101568.95
2019-05-23T05:11:30.183Z,101568.75
2019-05-23T05:13:57.339Z,101577.94
2019-05-23T05:16:27.194Z,101571.55
2019-05-23T05:18:56.966Z,101575.78
2019-05-23T05:21:26.562Z,101579.98
2019-05-23T05:23:56.157Z,101578.00
2019-05-23T05:26:25.871Z,101579.73
2019-05-23T05:28:56.202Z,101580.28
2019-05-23T05:31:25.909Z,101583.03
2019-05-23T05:33:56.473Z,101586.05
2019-05-23T05:36:26.512Z,101589.97
2019-05-23T05:38:56.327Z,101590.36
2019-05-23T05:41:26.947Z,101592.34
2019-05-23T05:43:56.848Z,101586.47
2019-05-23T05:46:26.664Z,101594.12
2019-05-23T05:48:57.851Z,101597.56
2019-05-23T05:51:28.533Z,101597.78
2019-05-23T05:53:59.056Z,101609.59
2019-05-23T05:56:29.904Z,101602.14
2019-05-23T05:58:59.489Z,101600.12
2019-05-23T06:01:34.097Z,101606.08
2019-05-23T06:04:01.734Z,101600.28
2019-05-23T06:06:35.881Z,101604.38
2019-05-23T06:09:12.438Z,101606.92
2019-05-23T06:11:42.278Z,101607.25
2019-05-23T06:14:12.091Z,101611.33
2019-05-23T06:16:44.998Z,101614.69
2019-05-23T06:19:15.240Z,101620.82
2019-05-23T06:21:46.147Z,101615.21
2019-05-23T06:24:16.746Z,101612.44
2019-05-23T06:26:46.890Z,101621.69
2019-05-23T06:29:16.621Z,101620.36
2019-05-23T06:31:47.247Z,101623.09
2019-05-23T06:34:17.849Z,101617.28
2019-05-23T06:36:47.519Z,101617.17
2019-05-23T06:39:18.105Z,101613.76
2019-05-23T06:41:48.323Z,101613.25
2019-05-23T06:44:19.924Z,101615.23
2019-05-23T06:46:50.131Z,101622.70
2019-05-23T06:49:19.749Z,101612.83
2019-05-23T06:51:49.405Z,101615.64
2019-05-23T06:54:19.111Z,101615.34
2019-05-23T06:56:48.758Z,101620.59
2019-05-23T06:59:18.853Z,101627.98
2019-05-23T07:01:51.291Z,101620.26
2019-05-23T07:04:22.666Z,101619.74
2019-05-23T07:06:52.846Z,101622.63
2019-05-23T07:09:23.424Z,101618.62
2019-05-23T07:11:56.922Z,101615.81
2019-05-23T07:14:27.932Z,101620.88
2019-05-23T07:16:59.561Z,101615.68
2019-05-23T07:19:29.332Z,101620.12
2019-05-23T07:21:59.037Z,101617.13
2019-05-23T07:24:29.250Z,101620.77
2019-05-23T07:26:58.976Z,101624.02
2019-05-23T07:29:31.478Z,101618.30
2019-05-23T07:32:05.120Z,101612.83
2019-05-23T07:34:35.766Z,101619.03
2019-05-23T07:37:06.631Z,101620.06
2019-05-23T07:39:36.755Z,101614.45
2019-05-23T07:42:06.611Z,101619.16
2019-05-23T07:44:47.953Z,101620.80
2019-05-23T07:47:10.506Z,101620.14
2019-05-23T07:49:40.303Z,101623.56
2019-05-23T07:52:09.915Z,101627.14
2019-05-23T07:54:49.830Z,101619.22
2019-05-23T07:57:20.098Z,101619.36
2019-05-23T07:59:50.070Z,101621.18
2019-05-23T08:02:28.753Z,101621.59
2019-05-23T08:04:59.125Z,101625.70
2019-05-23T08:07:32.851Z,101619.97
2019-05-23T08:10:02.012Z,101619.58
2019-05-23T08:12:32.227Z,101620.61
2019-05-23T08:15:01.881Z,101621.27
2019-05-23T08:17:33.487Z,101615.97
2019-05-23T08:20:03.299Z,101617.25
2019-05-23T08:22:33.186Z,101618.05
2019-05-23T08:25:02.767Z,101614.89
2019-05-23T08:27:34.412Z,101621.61
2019-05-23T08:30:07.626Z,101612.45
2019-05-23T08:32:37.246Z,101620.35
2019-05-23T08:35:08.231Z,101614.34
2019-05-23T08:37:38.844Z,101614.56
2019-05-23T08:40:10.720Z,101615.89
2019-05-23T08:42:40.519Z,101608.53
2019-05-23T08:45:11.784Z,101611.33
2019-05-23T08:47:41.710Z,101604.55
2019-05-23T08:50:12.506Z,101617.26
2019-05-23T08:52:42.258Z,101613.98
2019-05-23T08:55:21.666Z,101605.59
2019-05-23T08:57:54.617Z,101614.28
2019-05-23T09:00:29.706Z,101607.72
2019-05-23T09:03:00.502Z,101610.72
2019-05-23T09:05:31.989Z,101606.31
2019-05-23T09:08:02.070Z,101616.11
2019-05-23T09:10:35.994Z,101612.06
2019-05-23T09:13:07.065Z,101607.06
2019-05-23T09:15:37.563Z,101598.56
2019-05-23T09:18:08.114Z,101603.73
2019-05-23T09:20:38.381Z,101602.98
2019-05-23T09:23:09.320Z,101601.84
2019-05-23T09:25:40.007Z,101601.52
2019-05-23T09:28:11.708Z,101599.14
2019-05-23T09:30:41.371Z,101598.60
2019-05-23T09:33:11.795Z,101600.84
2019-05-23T09:35:41.830Z,101592.77
2019-05-23T09:38:13.327Z,101596.67
2019-05-23T09:40:44.092Z,101593.42
2019-05-23T09:43:14.070Z,101597.61
2019-05-23T09:45:43.791Z,101590.76
2019-05-23T09:48:20.646Z,101593.02
2019-05-23T09:50:50.154Z,101589.53
2019-05-23T09:53:19.766Z,101590.09
2019-05-23T09:55:51.292Z,101591.92
2019-05-23T09:58:20.914Z,101578.59
2019-05-23T10:00:50.742Z,101585.58
2019-05-23T10:03:21.107Z,101579.03
2019-05-23T10:05:51.800Z,101574.31
2019-05-23T10:08:21.778Z,101578.00
2019-05-23T10:10:53.164Z,101583.76
2019-05-23T10:13:38.620Z,101583.17
2019-05-23T10:16:03.058Z,101577.61
2019-05-23T10:18:33.121Z,101570.89
2019-05-23T10:21:02.833Z,101573.48
2019-05-23T10:23:34.092Z,101572.48
2019-05-23T10:26:03.963Z,101571.11
2019-05-23T10:28:33.760Z,101564.12
2019-05-23T10:31:07.311Z,101564.28
2019-05-23T10:33:37.040Z,101562.14
2019-05-23T10:36:08.912Z,101552.78
2019-05-23T10:38:41.593Z,101551.43
2019-05-23T10:41:11.257Z,101553.25
2019-05-23T10:43:41.071Z,101555.98
2019-05-23T10:46:12.080Z,101553.30
2019-05-23T10:48:42.044Z,101557.27
2019-05-23T10:51:12.029Z,101554.30
2019-05-23T10:53:45.902Z,101552.34
2019-05-23T10:56:20.376Z,101549.70
2019-05-23T10:58:48.193Z,101545.77
2019-05-23T11:01:21.279Z,101536.30
2019-05-23T11:03:51.132Z,101532.72
2019-05-23T11:06:21.810Z,101531.42
2019-05-23T11:08:51.586Z,101533.21
2019-05-23T11:11:21.703Z,101533.23
2019-05-23T11:13:51.655Z,101534.16
2019-05-23T11:16:26.077Z,101534.58
2019-05-23T11:18:55.742Z,101532.17
2019-05-23T11:21:25.953Z,101522.95
2019-05-23T11:23:56.451Z,101524.13
2019-05-23T11:26:26.112Z,101523.73
2019-05-23T11:28:57.367Z,101517.26
2019-05-23T11:31:31.708Z,101511.91
2019-05-23T11:34:03.340Z,101517.03
2019-05-23T11:36:36.039Z,101507.09
2019-05-23T11:39:05.778Z,101503.16
2019-05-23T11:41:38.710Z,101508.06
2019-05-23T11:44:08.386Z,101510.31
2019-05-23T11:46:42.008Z,101511.05
2019-05-23T11:49:11.984Z,101503.43
2019-05-23T11:51:43.363Z,101501.75
2019-05-23T11:54:13.092Z,101504.20
2019-05-23T11:56:43.228Z,101502.67
2019-05-23T11:59:13.520Z,101504.14
2019-05-23T12:01:51.389Z,101497.17
2019-05-23T12:04:22.196Z,101503.11
2019-05-23T12:07:03.818Z,101499.95
2019-05-23T12:09:33.767Z,101487.63
2019-05-23T12:12:03.717Z,101488.71
2019-05-23T12:14:33.985Z,101486.67
2019-05-23T12:17:05.466Z,101488.94
2019-05-23T12:19:35.982Z,101483.88
2019-05-23T12:22:06.148Z,101482.30
2019-05-23T12:24:36.710Z,101471.53
2019-05-23T12:27:06.818Z,101478.22
2019-05-23T12:29:38.963Z,101485.60
2019-05-23T12:32:10.891Z,101478.89
2019-05-23T12:34:40.504Z,101467.67
2019-05-23T12:37:19.180Z,101467.77
2019-05-23T12:39:43.810Z,101468.14
2019-05-23T12:42:13.465Z,101473.41
2019-05-23T12:44:43.299Z,101467.02
2019-05-23T12:47:14.673Z,101465.20
2019-05-23T12:49:46.059Z,101464.11
2019-05-23T12:52:16.922Z,101453.56
2019-05-23T12:54:47.128Z,101462.60
2019-05-23T12:57:16.784Z,101460.85
2019-05-23T12:59:47.106Z,101453.64
2019-05-23T13:02:18.496Z,101448.60
2019-05-23T13:04:48.468Z,101446.17
2019-05-23T13:07:34.620Z,101445.40
2019-05-23T13:09:50.609Z,101446.91
2019-05-23T13:12:21.318Z,101448.47
2019-05-23T13:14:53.506Z,101439.86
2019-05-23T13:17:22.309Z,101432.11
2019-05-23T13:19:52.109Z,101443.89
2019-05-23T13:22:22.891Z,101439.38
2019-05-23T13:24:53.545Z,101430.16
2019-05-23T13:27:23.445Z,101433.46
2019-05-23T13:29:53.400Z,101429.80
2019-05-23T13:32:23.132Z,101440.88
2019-05-23T13:34:52.673Z,101434.09
2019-05-23T13:37:24.007Z,101437.70
2019-05-23T13:39:53.780Z,101434.44
2019-05-23T13:42:23.790Z,101427.24
2019-05-23T13:44:53.751Z,101429.00
2019-05-23T13:47:23.814Z,101422.42
2019-05-23T13:49:53.840Z,101426.11
2019-05-23T13:52:23.580Z,101419.44
2019-05-23T13:54:53.633Z,101419.65
2019-05-23T13:57:23.366Z,101413.59
2019-05-23T13:59:53.993Z,101410.08
2019-05-23T14:02:24.154Z,101404.74
2019-05-23T14:04:54.258Z,101403.88
2019-05-23T14:07:25.753Z,101405.79
2019-05-23T14:09:55.471Z,101398.35
2019-05-23T14:12:26.033Z,101395.94
2019-05-23T14:14:57.926Z,101395.00
2019-05-23T14:17:27.410Z,101396.31
2019-05-23T14:19:57.257Z,101388.42
2019-05-23T14:22:27.690Z,101393.20
2019-05-23T14:24:57.439Z,101396.05
2019-05-23T14:27:40.898Z,101392.08
2019-05-23T14:30:18.816Z,101392.76
2019-05-23T14:32:52.921Z,101389.94
2019-05-23T14:35:24.201Z,101385.91
2019-05-23T14:37:55.468Z,101387.25
2019-05-23T14:40:27.948Z,101385.77
2019-05-23T14:42:59.345Z,101388.14
2019-05-23T14:45:43.956Z,101381.95
2019-05-23T14:48:31.488Z,101384.31
2019-05-23T14:51:06.688Z,101377.44
2019-05-23T14:53:43.636Z,101383.25
2019-05-23T14:56:14.622Z,101380.72
2019-05-23T14:58:45.103Z,101377.78
2019-05-23T15:01:15.653Z,101379.05
2019-05-23T15:03:46.032Z,101377.13
2019-05-23T15:06:15.826Z,101377.73
2019-05-23T15:08:51.157Z,101372.86
2019-05-23T15:11:17.338Z,101369.69
2019-05-23T15:13:47.253Z,101364.52
2019-05-23T15:16:17.423Z,101368.90
2019-05-23T15:18:48.632Z,101370.86
2019-05-23T15:21:18.579Z,101364.75
2019-05-23T15:23:48.175Z,101363.98
2019-05-23T15:26:22.821Z,101366.81
2019-05-23T15:28:49.209Z,101360.84
2019-05-23T15:31:19.840Z,101352.75
2019-05-23T15:33:53.023Z,101360.77
2019-05-23T15:36:22.661Z,101357.28
2019-05-23T15:39:08.141Z,101348.59
2019-05-23T15:41:23.857Z,101348.66
2019-05-23T15:43:53.504Z,101347.12
2019-05-23T15:46:23.748Z,101348.83
2019-05-23T15:48:54.371Z,101344.45
2019-05-23T15:51:28.770Z,101342.48
2019-05-23T15:54:08.873Z,101341.80
2019-05-23T15:56:40.135Z,101343.48
2019-05-23T15:59:14.948Z,101342.02
2019-05-23T16:01:46.577Z,101344.88
2019-05-23T16:04:24.289Z,101341.50
2019-05-23T16:06:55.055Z,101330.83
2019-05-23T16:09:29.948Z,101335.41
2019-05-23T16:11:59.097Z,101331.11
2019-05-23T16:14:29.096Z,101334.39
2019-05-23T16:16:58.823Z,101328.89
2019-05-23T16:19:31.440Z,101326.72
2019-05-23T16:22:02.386Z,101321.87
2019-05-23T16:24:32.039Z,101318.69
2019-05-23T16:27:06.044Z,101313.03
2019-05-23T16:29:37.159Z,101314.20
2019-05-23T16:32:06.894Z,101308.64
2019-05-23T16:34:38.791Z,101316.13
2019-05-23T16:37:10.031Z,101305.88
2019-05-23T16:39:47.406Z,101304.50
2019-05-23T16:42:13.375Z,101306.11
2019-05-23T16:44:42.962Z,101305.41
2019-05-23T16:47:12.597Z,101302.17
2019-05-23T16:49:42.497Z,101303.01
2019-05-23T16:52:12.377Z,101307.73
2019-05-23T16:54:43.981Z,101301.75
2019-05-23T16:57:30.722Z,101303.52
2019-05-23T17:00:20.790Z,101304.89
2019-05-23T17:02:51.062Z,101306.88
2019-05-23T17:05:26.670Z,101301.50
2019-05-23T17:08:04.079Z,101296.50
2019-05-23T17:10:36.496Z,101297.41
2019-05-23T17:13:12.297Z,101292.41
2019-05-23T17:15:49.466Z,101303.41
2019-05-23T17:18:36.737Z,101300.39
2019-05-23T17:21:08.090Z,101290.80
2019-05-23T17:23:39.485Z,101292.95
2019-05-23T17:26:20.707Z,101295.42
2019-05-23T17:28:52.000Z,101291.43
2019-05-23T17:31:25.639Z,101285.31
2019-05-23T17:33:59.159Z,101283.58
2019-05-23T17:36:28.855Z,101281.20
2019-05-23T17:38:58.685Z,101279.77
2019-05-23T17:41:30.752Z,101276.52
2019-05-23T17:44:00.595Z,101279.66
2019-05-23T17:46:30.495Z,101276.95
2019-05-23T17:49:00.175Z,101281.41
2019-05-23T17:51:30.480Z,101272.55
2019-05-23T17:54:00.224Z,101275.55
2019-05-23T17:56:33.686Z,101270.81
2019-05-23T17:59:03.425Z,101269.35
2019-05-23T18:01:33.592Z,101269.72
2019-05-23T18:04:06.218Z,101266.66
2019-05-23T18:06:36.150Z,101265.73
2019-05-23T18:09:09.907Z,101265.44
2019-05-23T18:11:39.842Z,101266.84
2019-05-23T18:14:10.865Z,101258.19
2019-05-23T18:16:42.968Z,101261.60
2019-05-23T18:19:12.751Z,101258.05
2019-05-23T18:21:44.411Z,101256.63
2019-05-23T18:24:15.013Z,101260.23
2019-05-23T18:26:44.790Z,101265.86
2019-05-23T18:29:14.991Z,101256.08
2019-05-23T18:31:47.117Z,101259.45
2019-05-23T18:34:16.828Z,101258.39
2019-05-23T18:36:46.701Z,101258.52
2019-05-23T18:39:17.459Z,101257.33
2019-05-23T18:41:47.119Z,101253.44
2019-05-23T18:44:17.963Z,101256.18
2019-05-23T18:46:55.094Z,101254.69
2019-05-23T18:49:26.161Z,101253.22
2019-05-23T18:51:56.197Z,101256.05
2019-05-23T18:54:25.970Z,101256.28
2019-05-23T18:56:56.166Z,101259.92
2019-05-23T18:59:26.041Z,101267.56
2019-05-23T19:01:58.454Z,101260.20
2019-05-23T19:04:28.513Z,101260.42
2019-05-23T19:06:58.242Z,101256.55
2019-05-23T19:09:28.304Z,101257.02
2019-05-23T19:11:59.043Z,101256.02
2019-05-23T19:14:28.720Z,101254.33
2019-05-23T19:17:02.033Z,101254.39
2019-05-23T19:19:32.910Z,101253.24
2019-05-23T19:22:04.469Z,101252.23
2019-05-23T19:24:34.933Z,101254.22
2019-05-23T19:27:06.389Z,101255.45
2019-05-23T19:29:36.355Z,101250.98
2019-05-23T19:32:07.414Z,101259.47
2019-05-23T19:34:37.281Z,101250.85
2019-05-23T19:37:09.028Z,101250.30
2019-05-23T19:39:40.030Z,101258.16
2019-05-23T19:42:10.524Z,101252.25
2019-05-23T19:44:40.711Z,101253.53
2019-05-23T19:47:11.576Z,101252.11
2019-05-23T19:49:41.272Z,101254.64
2019-05-23T19:52:12.643Z,101251.17
2019-05-23T19:54:42.886Z,101251.36
2019-05-23T19:57:12.505Z,101251.57
2019-05-23T19:59:42.194Z,101248.36
2019-05-23T20:02:16.195Z,101244.67
2019-05-23T20:04:53.639Z,101240.16
2019-05-23T20:07:23.877Z,101237.44
2019-05-23T20:09:55.515Z,101239.91
2019-05-23T20:12:27.931Z,101242.68
2019-05-23T20:14:57.746Z,101241.51
2019-05-23T20:17:27.626Z,101245.30
2019-05-23T20:19:57.611Z,101243.50
2019-05-23T20:22:28.701Z,101238.44
2019-05-23T20:24:59.618Z,101242.67
2019-05-23T20:27:29.509Z,101237.28
2019-05-23T20:29:59.240Z,101241.19
2019-05-23T20:32:28.885Z,101246.27
2019-05-23T20:34:58.550Z,101244.98
2019-05-23T20:37:30.392Z,101242.11
2019-05-23T20:40:00.207Z,101240.94
2019-05-23T20:42:30.337Z,101232.72
2019-05-23T20:45:00.414Z,101237.45
2019-05-23T20:47:31.246Z,101233.41
2019-05-23T20:50:01.436Z,101233.73
2019-05-23T20:52:31.895Z,101234.53
2019-05-23T20:55:01.830Z,101239.15
2019-05-23T20:57:31.932Z,101238.27
2019-05-23T21:00:01.911Z,101225.84
2019-05-23T21:02:31.815Z,101235.38
2019-05-23T21:05:01.746Z,101239.36
2019-05-23T21:07:32.404Z,101232.94
2019-05-23T21:10:02.110Z,101224.14
2019-05-23T21:12:32.337Z,101224.75
2019-05-23T21:15:02.205Z,101234.40
2019-05-23T21:17:33.917Z,101233.03
2019-05-23T21:20:04.383Z,101231.78
2019-05-23T21:22:39.741Z,101226.37
2019-05-23T21:25:09.568Z,101230.28
2019-05-23T21:27:39.180Z,101225.57
2019-05-23T21:30:10.673Z,101225.00
2019-05-23T21:32:40.405Z,101226.49
2019-05-23T21:35:10.075Z,101224.27
2019-05-23T21:37:39.951Z,101226.31
2019-05-23T21:40:33.733Z,101219.61
2019-05-23T21:43:03.414Z,101218.57
2019-05-23T21:45:33.123Z,101220.73
2019-05-23T21:48:03.036Z,101215.64
2019-05-23T21:50:33.075Z,101210.30
2019-05-23T21:53:03.493Z,101209.77
2019-05-23T21:55:42.364Z,101216.85
2019-05-23T21:58:17.323Z,101215.48
2019-05-23T22:01:06.615Z,101211.22
2019-05-23T22:03:39.379Z,101207.98
2019-05-23T22:06:13.779Z,101209.18
2019-05-23T22:08:45.966Z,101205.14
2019-05-23T22:11:16.165Z,101206.73
2019-05-23T22:13:49.876Z,101208.96
2019-05-23T22:16:19.541Z,101206.31
2019-05-23T22:18:49.208Z,101205.88
2019-05-23T22:21:19.099Z,101202.64
2019-05-23T22:23:49.153Z,101200.93
2019-05-23T22:26:21.820Z,101199.29
2019-05-23T22:28:54.147Z,101199.63
2019-05-23T22:31:24.736Z,101194.48
2019-05-23T22:33:58.911Z,101199.31
2019-05-23T22:36:28.587Z,101193.58
2019-05-23T22:38:58.196Z,101193.03
2019-05-23T22:41:28.380Z,101188.22
2019-05-23T22:43:58.033Z,101185.07
2019-05-23T22:46:29.408Z,101180.53
2019-05-23T22:49:01.387Z,101175.04
2019-05-23T22:51:31.593Z,101175.75
2019-05-23T22:54:01.218Z,101173.23
2019-05-23T22:56:30.941Z,101172.52
2019-05-23T22:59:00.543Z,101169.27
2019-05-23T23:01:31.638Z,101169.46
2019-05-23T23:04:01.260Z,101168.53
2019-05-23T23:06:31.391Z,101162.10
2019-05-23T23:09:03.157Z,101173.17
2019-05-23T23:11:34.715Z,101169.80
2019-05-23T23:14:04.451Z,101162.25
2019-05-23T23:16:34.328Z,101164.09
2019-05-23T23:19:04.011Z,101165.47
2019-05-23T23:21:33.610Z,101162.08
2019-05-23T23:24:03.128Z,101161.80
2019-05-23T23:26:32.700Z,101164.00
2019-05-23T23:29:03.510Z,101162.22
2019-05-23T23:31:33.520Z,101165.70
2019-05-23T23:34:06.124Z,101159.94
2019-05-23T23:36:35.979Z,101160.61
2019-05-23T23:39:07.500Z,101162.13
2019-05-23T23:41:37.210Z,101162.50
2019-05-23T23:44:08.983Z,101163.96
2019-05-23T23:46:56.632Z,101161.03
2019-05-23T23:49:44.253Z,101158.39
2019-05-23T23:52:31.906Z,101155.88
2019-05-23T23:55:19.150Z,101163.48
2019-05-23T23:58:00.023Z,101154.82
